createdAt,value
2017-07-29T00:04:00.793Z,100399
2017-07-29T00:09:04.040Z,100378
2017-07-29T00:14:07.232Z,100390
2017-07-29T00:19:10.433Z,100391
2017-07-29T00:24:13.608Z,100391
2017-07-29T00:29:16.802Z,100390
2017-07-29T00:34:19.994Z,100380
2017-07-29T00:39:23.943Z,100379
2017-07-29T00:44:27.119Z,100382
2017-07-29T00:49:31.070Z,100384
2017-07-29T00:54:34.259Z,100378
2017-07-29T00:59:37.471Z,100369
2017-07-29T01:04:40.658Z,100374
2017-07-29T01:09:44.644Z,100374
2017-07-29T01:14:47.833Z,100373
2017-07-29T01:19:51.031Z,100378
2017-07-29T01:24:54.229Z,100367
2017-07-29T01:29:57.447Z,100360
2017-07-29T01:35:00.634Z,100360
2017-07-29T01:40:04.582Z,100350
2017-07-29T01:45:07.785Z,100363
2017-07-29T01:50:10.947Z,100367
2017-07-29T01:55:14.146Z,100359
2017-07-29T02:00:17.364Z,100365
2017-07-29T02:05:20.541Z,100361
2017-07-29T02:10:23.718Z,100358
2017-07-29T02:15:26.924Z,100358
2017-07-29T02:20:30.117Z,100364
2017-07-29T02:25:33.325Z,100369
2017-07-29T02:30:36.505Z,100369
2017-07-29T02:35:39.675Z,100369
2017-07-29T02:40:42.847Z,100368
2017-07-29T02:45:46.051Z,100371
2017-07-29T02:50:49.989Z,100362
2017-07-29T02:55:53.202Z,100361
2017-07-29T03:00:56.401Z,100362
2017-07-29T03:05:59.581Z,100369
2017-07-29T03:11:03.522Z,100358
2017-07-29T03:16:06.845Z,100350
2017-07-29T03:21:10.057Z,100358
2017-07-29T03:26:13.265Z,100355
2017-07-29T03:31:16.441Z,100351
2017-07-29T03:36:20.405Z,100348
2017-07-29T03:41:23.577Z,100344
2017-07-29T03:46:26.769Z,100348
2017-07-29T03:51:29.945Z,100345
2017-07-29T03:56:33.116Z,100349
2017-07-29T04:01:36.398Z,100346
2017-07-29T04:06:40.350Z,100360
2017-07-29T04:11:43.497Z,100369
2017-07-29T04:16:46.700Z,100362
2017-07-29T04:21:49.896Z,100368
2017-07-29T04:26:53.203Z,100359
2017-07-29T04:31:56.401Z,100365
2017-07-29T04:36:59.585Z,100361
2017-07-29T04:42:02.778Z,100366
2017-07-29T04:47:06.737Z,100361
2017-07-29T04:52:10.000Z,100363
2017-07-29T04:57:13.959Z,100364
2017-07-29T05:02:17.165Z,100375
2017-07-29T05:07:20.360Z,100381
2017-07-29T05:12:23.524Z,100378
2017-07-29T05:17:26.718Z,100375
2017-07-29T05:22:29.920Z,100371
2017-07-29T05:27:33.112Z,100369
2017-07-29T05:32:36.332Z,100361
2017-07-29T05:37:39.550Z,100369
2017-07-29T05:42:42.749Z,100367
2017-07-29T05:47:45.933Z,100377
2017-07-29T05:52:49.147Z,100395
2017-07-29T05:57:52.350Z,100388
2017-07-29T06:02:55.550Z,100398
2017-07-29T06:07:58.751Z,100393
2017-07-29T06:13:01.996Z,100394
2017-07-29T06:18:05.184Z,100387
2017-07-29T06:23:08.375Z,100388
2017-07-29T06:28:11.542Z,100391
2017-07-29T06:33:15.516Z,100404
2017-07-29T06:38:18.707Z,100400
2017-07-29T06:43:21.918Z,100405
2017-07-29T06:48:25.252Z,100408
2017-07-29T06:53:28.579Z,100403
2017-07-29T06:58:31.766Z,100414
2017-07-29T07:03:35.210Z,100400
2017-07-29T07:08:38.453Z,100404
2017-07-29T07:13:42.398Z,100401
2017-07-29T07:18:45.593Z,100404
2017-07-29T07:23:48.805Z,100400
2017-07-29T07:28:52.018Z,100403
2017-07-29T07:33:55.226Z,100412
2017-07-29T07:38:58.433Z,100407
2017-07-29T07:44:01.640Z,100410
2017-07-29T07:49:04.815Z,100406
2017-07-29T07:54:08.783Z,100413
2017-07-29T07:59:12.066Z,100408
2017-07-29T08:04:15.271Z,100398
2017-07-29T08:09:18.475Z,100392
2017-07-29T08:14:21.668Z,100401
2017-07-29T08:19:25.649Z,100401
2017-07-29T08:24:28.876Z,100399
2017-07-29T08:29:32.023Z,100397
2017-07-29T08:34:35.244Z,100402
2017-07-29T08:39:38.442Z,100405
2017-07-29T08:44:41.803Z,100408
2017-07-29T08:49:45.128Z,100398
2017-07-29T08:54:48.311Z,100407
2017-07-29T08:59:51.566Z,100404
2017-07-29T09:04:55.516Z,100407
2017-07-29T09:09:58.751Z,100401
2017-07-29T09:15:01.917Z,100401
2017-07-29T09:20:05.116Z,100393
2017-07-29T09:25:08.328Z,100397
2017-07-29T09:30:11.517Z,100403
2017-07-29T09:35:14.711Z,100412
2017-07-29T09:40:17.917Z,100399
2017-07-29T09:45:21.099Z,100405
2017-07-29T09:50:24.287Z,100398
2017-07-29T09:55:27.495Z,100396
2017-07-29T10:00:30.720Z,100395
2017-07-29T10:05:33.971Z,100392
2017-07-29T10:10:37.937Z,100376
2017-07-29T10:15:41.264Z,100381
2017-07-29T10:20:44.584Z,100382
2017-07-29T10:25:47.729Z,100373
2017-07-29T10:30:50.946Z,100361
2017-07-29T10:35:54.134Z,100364
2017-07-29T10:40:57.336Z,100356
2017-07-29T10:46:01.290Z,100355
2017-07-29T10:51:04.493Z,100337
2017-07-29T10:56:07.685Z,100352
2017-07-29T11:01:10.912Z,100341
2017-07-29T11:06:14.138Z,100340
2017-07-29T11:11:17.337Z,100322
2017-07-29T11:16:20.544Z,100339
2017-07-29T11:21:23.741Z,100324
2017-07-29T11:26:26.954Z,100325
2017-07-29T11:31:30.291Z,100322
2017-07-29T11:36:33.623Z,100321
2017-07-29T11:41:37.601Z,100323
2017-07-29T11:46:40.925Z,100310
2017-07-29T11:51:44.182Z,100317
2017-07-29T11:56:48.141Z,100316
2017-07-29T12:01:51.332Z,100314
2017-07-29T12:06:54.513Z,100316
2017-07-29T12:11:58.521Z,100310
2017-07-29T12:17:01.733Z,100304
2017-07-29T12:22:05.703Z,100309
2017-07-29T12:27:08.879Z,100310
2017-07-29T12:32:12.891Z,100302
2017-07-29T12:37:16.045Z,100302
2017-07-29T12:42:19.281Z,100302
2017-07-29T12:47:22.484Z,100300
2017-07-29T12:52:25.685Z,100306
2017-07-29T12:57:29.118Z,100295
2017-07-29T13:02:32.312Z,100299
2017-07-29T13:07:35.520Z,100300
2017-07-29T13:12:38.726Z,100306
2017-07-29T13:17:41.931Z,100307
2017-07-29T13:22:45.098Z,100293
2017-07-29T13:27:48.327Z,100290
2017-07-29T13:32:51.530Z,100290
2017-07-29T13:37:54.864Z,100284
2017-07-29T13:42:58.046Z,100274
2017-07-29T13:48:01.219Z,100275
2017-07-29T13:53:04.420Z,100271
2017-07-29T13:58:07.648Z,100270
2017-07-29T14:03:10.858Z,100266
2017-07-29T14:08:14.044Z,100255
2017-07-29T14:13:17.995Z,100258
2017-07-29T14:18:21.186Z,100265
2017-07-29T14:23:24.385Z,100257
2017-07-29T14:28:27.596Z,100251
2017-07-29T14:33:30.806Z,100246
2017-07-29T14:38:33.996Z,100249
2017-07-29T14:43:37.984Z,100246
2017-07-29T14:48:41.202Z,100234
2017-07-29T14:53:44.369Z,100239
2017-07-29T14:58:47.578Z,100237
2017-07-29T15:03:50.800Z,100238
2017-07-29T15:08:53.998Z,100226
2017-07-29T15:13:57.174Z,100227
2017-07-29T15:19:00.395Z,100221
2017-07-29T15:24:03.589Z,100225
2017-07-29T15:29:06.795Z,100221
2017-07-29T15:34:10.034Z,100212
2017-07-29T15:39:13.234Z,100205
2017-07-29T15:44:16.431Z,100200
2017-07-29T15:49:19.582Z,100204
2017-07-29T15:54:22.763Z,100198
2017-07-29T15:59:25.948Z,100197
2017-07-29T16:04:29.233Z,100188
2017-07-29T16:09:33.432Z,100196
2017-07-29T16:14:36.630Z,100185
2017-07-29T16:19:39.855Z,100184
2017-07-29T16:24:43.058Z,100177
2017-07-29T16:29:47.044Z,100173
2017-07-29T16:34:50.224Z,100178
2017-07-29T16:39:53.421Z,100176
2017-07-29T16:44:57.390Z,100168
2017-07-29T16:50:00.543Z,100173
2017-07-29T16:55:04.531Z,100168
2017-07-29T17:00:07.768Z,100169
2017-07-29T17:05:11.733Z,100167
2017-07-29T17:10:14.918Z,100164
2017-07-29T17:15:18.137Z,100164
2017-07-29T17:20:22.162Z,100159
2017-07-29T17:25:25.351Z,100159
2017-07-29T17:30:29.433Z,100146
2017-07-29T17:35:32.648Z,100144
2017-07-29T17:40:35.846Z,100151
2017-07-29T17:45:39.065Z,100157
2017-07-29T17:50:42.277Z,100157
2017-07-29T17:55:45.496Z,100155
2017-07-29T18:00:48.653Z,100143
2017-07-29T18:05:51.855Z,100142
2017-07-29T18:10:55.054Z,100132
2017-07-29T18:15:58.279Z,100122
2017-07-29T18:21:01.482Z,100115
2017-07-29T18:26:04.678Z,100111
2017-07-29T18:31:07.882Z,100109
2017-07-29T18:36:11.144Z,100112
2017-07-29T18:41:14.363Z,100111
2017-07-29T18:46:17.595Z,100107
2017-07-29T18:51:20.781Z,100108
2017-07-29T18:56:24.791Z,100104
2017-07-29T19:01:28.296Z,100116
2017-07-29T19:06:31.478Z,100108
2017-07-29T19:11:34.708Z,100101
2017-07-29T19:16:37.945Z,100111
2017-07-29T19:21:41.988Z,100114
2017-07-29T19:26:45.955Z,100111
2017-07-29T19:31:49.163Z,100113
2017-07-29T19:36:52.353Z,100116
2017-07-29T19:41:55.690Z,100115
2017-07-29T19:46:58.946Z,100121
2017-07-29T19:52:02.146Z,100123
2017-07-29T19:57:05.359Z,100129
2017-07-29T20:02:08.662Z,100124
2017-07-29T20:07:12.666Z,100124
2017-07-29T20:12:16.632Z,100126
2017-07-29T20:17:19.856Z,100117
2017-07-29T20:22:23.127Z,100124
2017-07-29T20:27:27.301Z,100113
2017-07-29T20:32:30.501Z,100117
2017-07-29T20:37:33.708Z,100114
2017-07-29T20:42:36.885Z,100112
2017-07-29T20:47:40.080Z,100114
2017-07-29T20:52:44.103Z,100107
2017-07-29T20:57:48.030Z,100114
2017-07-29T21:02:51.234Z,100107
2017-07-29T21:07:55.217Z,100110
2017-07-29T21:12:58.396Z,100093
2017-07-29T21:18:01.762Z,100095
2017-07-29T21:23:05.720Z,100087
2017-07-29T21:28:08.875Z,100084
2017-07-29T21:33:12.130Z,100076
2017-07-29T21:38:15.300Z,100063
2017-07-29T21:43:19.270Z,100066
2017-07-29T21:48:22.442Z,100069
2017-07-29T21:53:26.434Z,100079
2017-07-29T21:58:29.639Z,100058
2017-07-29T22:03:32.922Z,100056
2017-07-29T22:08:36.145Z,100069
2017-07-29T22:13:39.428Z,100080
2017-07-29T22:18:42.627Z,100073
2017-07-29T22:23:45.828Z,100074
2017-07-29T22:28:49.764Z,100074
2017-07-29T22:33:52.973Z,100063
2017-07-29T22:38:56.172Z,100065
2017-07-29T22:43:59.393Z,100064
2017-07-29T22:49:02.589Z,100044
2017-07-29T22:54:05.801Z,100047
2017-07-29T22:59:08.961Z,100044
2017-07-29T23:04:12.158Z,100031
2017-07-29T23:09:15.390Z,100027
2017-07-29T23:14:19.267Z,100026
2017-07-29T23:19:22.483Z,100023
2017-07-29T23:24:25.688Z,100019
2017-07-29T23:29:29.005Z,100012
2017-07-29T23:34:32.206Z,100009
2017-07-29T23:39:35.572Z,100003
2017-07-29T23:44:39.510Z,99997
2017-07-29T23:49:42.700Z,99998
2017-07-29T23:54:45.889Z,100004
2017-07-29T23:59:49.836Z,100001
